Time,TemperatureF,DewpointF,PressureIn,WindDirection,WindDirectionDegrees,WindSpeedMPH,WindSpeedGustMPH,Humidity,HourlyPrecipIn,Conditions,Clouds,dailyrainin,SoftwareType,DateUTC
2013-09-28 07:56:00,58.3,32.0,30.15,NNE,13,3.1,4.0,35,0.00,,,0.00,WUHU216WMR968SP,2013-09-28 11:56:00,
2013-09-28 07:57:00,58.3,32.0,30.15,NNE,21,4.0,5.8,35,0.00,,,0.00,WUHU216WMR968SP,2013-09-28 11:57:00,
2013-09-28 08:02:00,58.6,32.0,30.15,North,0,2.2,7.6,35,0.00,,,0.00,WUHU216WMR968SP,2013-09-28 12:02:00,
2013-09-28 08:07:00,59.5,30.9,30.15,NNE,31,4.0,7.6,34,0.00,,,0.00,WUHU216WMR968SP,2013-09-28 12:07:00,
2013-09-28 08:12:00,59.7,30.3,30.15,North,349,4.0,6.3,33,0.00,,,0.00,WUHU216WMR968SP,2013-09-28 12:12:00,
2013-09-28 08:17:00,60.3,30.1,30.15,NE,42,3.1,6.3,32,0.00,,,0.00,WUHU216WMR968SP,2013-09-28 12:17:00,
2013-09-28 08:22:00,60.3,28.5,30.15,North,1,3.6,6.7,30,0.00,,,0.00,WUHU216WMR968SP,2013-09-28 12:22:00,
2013-09-28 08:27:00,60.8,28.1,30.15,NNE,32,4.0,6.7,29,0.00,,,0.00,WUHU216WMR968SP,2013-09-28 12:27:00,
2013-09-28 08:32:00,61.5,27.9,30.15,NNE,17,4.0,6.3,28,0.00,,,0.00,WUHU216WMR968SP,2013-09-28 12:32:00,
2013-09-28 08:37:00,62.4,27.8,30.15,NE,38,3.6,6.3,27,0.00,,,0.00,WUHU216WMR968SP,2013-09-28 12:37:00,
2013-09-28 08:42:00,63.9,27.2,30.15,NNE,14,5.8,7.6,25,0.00,,,0.00,WUHU216WMR968SP,2013-09-28 12:42:00,
2013-09-28 08:47:00,64.4,26.7,30.15,ENE,77,3.6,7.6,24,0.00,,,0.00,WUHU216WMR968SP,2013-09-28 12:47:00,
2013-09-28 08:52:00,65.3,26.4,30.15,NNW,334,0.0,7.6,23,0.00,,,0.00,WUHU216WMR968SP,2013-09-28 12:52:00,
2013-09-28 08:57:00,66.9,24.5,30.15,ESE,112,0.0,7.6,20,0.00,,,0.00,WUHU216WMR968SP,2013-09-28 12:57:00,
2013-09-28 09:02:00,66.6,24.2,30.15,NNE,25,3.1,8.1,20,0.00,,,0.00,WUHU216WMR968SP,2013-09-28 13:02:00,
2013-09-28 09:07:00,66.9,24.5,30.15,NNW,339,4.0,8.1,20,0.00,,,0.00,WUHU216WMR968SP,2013-09-28 13:07:00,
2013-09-28 09:12:00,67.6,21.2,30.15,NE,37,2.2,8.1,17,0.00,,,0.00,WUHU216WMR968SP,2013-09-28 13:12:00,
2013-09-28 09:17:00,67.5,21.1,30.15,SE,125,4.0,8.1,17,0.00,,,0.00,WUHU216WMR968SP,2013-09-28 13:17:00,
2013-09-28 09:22:00,67.3,20.9,30.15,SE,130,3.6,8.1,17,0.00,,,0.00,WUHU216WMR968SP,2013-09-28 13:22:00,
2013-09-28 09:27:00,68.0,21.5,30.18,ESE,114,0.0,6.3,17,0.00,,,0.00,WUHU216WMR968SP,2013-09-28 13:27:00,
2013-09-28 09:32:00,68.0,21.5,30.18,SE,130,3.1,5.4,17,0.00,,,0.00,WUHU216WMR968SP,2013-09-28 13:32:00,
2013-09-28 09:37:00,68.2,21.7,30.18,NE,55,2.7,5.8,17,0.00,,,0.00,WUHU216WMR968SP,2013-09-28 13:37:00,
2013-09-28 09:42:00,68.7,22.1,30.18,ESE,123,2.7,5.8,17,0.00,,,0.00,WUHU216WMR968SP,2013-09-28 13:42:00,
2013-09-28 09:47:00,68.4,18.9,30.18,ESE,105,4.0,5.4,15,0.00,,,0.00,WUHU216WMR968SP,2013-09-28 13:47:00,
2013-09-28 09:52:00,68.2,18.7,30.18,NE,49,4.0,5.4,15,0.00,,,0.00,WUHU216WMR968SP,2013-09-28 13:52:00,
2013-09-28 09:57:00,68.9,19.3,30.18,ENE,66,2.2,5.4,15,0.00,,,0.00,WUHU216WMR968SP,2013-09-28 13:57:00,
2013-09-28 10:02:00,68.7,19.1,30.18,ESE,117,3.1,5.4,15,0.00,,,0.00,WUHU216WMR968SP,2013-09-28 14:02:00,
2013-09-28 10:07:00,68.5,18.9,30.18,SE,127,3.1,5.4,15,0.00,,,0.00,WUHU216WMR968SP,2013-09-28 14:07:00,
2013-09-28 10:12:00,68.5,18.9,30.18,ESE,119,3.1,5.4,15,0.00,,,0.00,WUHU216WMR968SP,2013-09-28 14:12:00,
2013-09-28 10:17:00,68.7,19.1,30.18,East,87,3.1,5.4,15,0.00,,,0.00,WUHU216WMR968SP,2013-09-28 14:17:00,
2013-09-28 10:22:00,68.4,18.9,30.18,SSE,152,3.6,5.8,15,0.00,,,0.00,WUHU216WMR968SP,2013-09-28 14:22:00,
2013-09-28 10:27:00,68.5,21.9,30.18,South,185,0.0,5.8,17,0.00,,,0.00,WUHU216WMR968SP,2013-09-28 14:27:00,
2013-09-28 10:32:00,69.1,19.4,30.18,ESE,103,3.6,5.8,15,0.00,,,0.00,WUHU216WMR968SP,2013-09-28 14:32:00,
2013-09-28 10:37:00,68.2,21.7,30.18,SE,125,4.5,5.8,17,0.00,,,0.00,WUHU216WMR968SP,2013-09-28 14:37:00,
2013-09-28 10:42:00,67.6,21.2,30.18,SE,134,3.6,6.3,17,0.00,,,0.00,WUHU216WMR968SP,2013-09-28 14:42:00,
2013-09-28 10:47:00,67.6,21.2,30.18,SE,144,4.5,6.3,17,0.00,,,0.00,WUHU216WMR968SP,2013-09-28 14:47:00,
2013-09-28 10:52:00,67.3,20.9,30.18,SE,137,3.6,6.3,17,0.00,,,0.00,WUHU216WMR968SP,2013-09-28 14:52:00,
2013-09-28 10:57:00,66.9,24.5,30.18,ENE,65,4.0,6.3,20,0.00,,,0.00,WUHU216WMR968SP,2013-09-28 14:57:00,
2013-09-28 11:02:00,66.2,23.9,30.18,ESE,123,4.9,6.3,20,0.00,,,0.00,WUHU216WMR968SP,2013-09-28 15:02:00,
2013-09-28 11:07:00,63.7,26.1,30.18,ESE,122,5.4,8.1,24,0.00,,,0.00,WUHU216WMR968SP,2013-09-28 15:07:00,
2013-09-28 11:12:00,63.1,26.6,30.18,ENE,65,5.8,8.1,25,0.00,,,0.00,WUHU216WMR968SP,2013-09-28 15:12:00,
2013-09-28 11:17:00,63.1,26.6,30.18,ESE,102,4.9,7.6,25,0.00,,,0.00,WUHU216WMR968SP,2013-09-28 15:17:00,
2013-09-28 11:22:00,63.1,26.6,30.18,SE,128,4.9,8.1,25,0.00,,,0.00,WUHU216WMR968SP,2013-09-28 15:22:00,
2013-09-28 11:27:00,63.0,27.4,30.18,ESE,111,6.3,8.3,26,0.00,,,0.00,WUHU216WMR968SP,2013-09-28 15:27:00,
2013-09-28 11:32:00,63.0,27.4,30.18,ESE,120,4.5,8.3,26,0.00,,,0.00,WUHU216WMR968SP,2013-09-28 15:32:00,
2013-09-28 11:37:00,62.6,27.1,30.18,East,91,6.7,8.3,26,0.00,,,0.00,WUHU216WMR968SP,2013-09-28 15:37:00,
2013-09-28 11:42:00,62.2,27.6,30.18,SSE,154,7.6,8.3,27,0.00,,,0.00,WUHU216WMR968SP,2013-09-28 15:42:00,
2013-09-28 11:47:00,62.1,27.5,30.18,SE,125,6.3,8.3,27,0.00,,,0.00,WUHU216WMR968SP,2013-09-28 15:47:00,
2013-09-28 11:52:00,62.1,28.4,30.18,ESE,114,6.7,8.1,28,0.00,,,0.00,WUHU216WMR968SP,2013-09-28 15:52:00,
2013-09-28 11:57:00,62.2,28.5,30.18,SE,128,4.9,8.1,28,0.00,,,0.00,WUHU216WMR968SP,2013-09-28 15:57:00,
2013-09-28 12:02:00,62.8,28.1,30.18,SE,139,4.0,8.1,27,0.00,,,0.00,WUHU216WMR968SP,2013-09-28 16:02:00,
2013-09-28 12:07:00,63.5,27.8,30.18,ESE,120,5.4,7.6,26,0.00,,,0.00,WUHU216WMR968SP,2013-09-28 16:07:00,
2013-09-28 12:12:00,63.9,28.2,30.18,SSE,160,3.6,6.3,26,0.00,,,0.00,WUHU216WMR968SP,2013-09-28 16:12:00,
2013-09-28 12:17:00,63.9,27.2,30.18,SSE,158,4.9,6.3,25,0.00,,,0.00,WUHU216WMR968SP,2013-09-28 16:17:00,
2013-09-28 12:22:00,63.9,27.2,30.18,ESE,117,4.9,6.7,25,0.00,,,0.00,WUHU216WMR968SP,2013-09-28 16:22:00,
2013-09-28 12:27:00,63.1,27.5,30.18,SE,138,6.3,8.3,26,0.00,,,0.00,WUHU216WMR968SP,2013-09-28 16:27:00,
2013-09-28 12:32:00,63.3,27.7,30.18,South,173,5.4,8.3,26,0.00,,,0.00,WUHU216WMR968SP,2013-09-28 16:32:00,
2013-09-28 12:37:00,63.0,28.3,30.18,SE,134,4.0,8.1,27,0.00,,,0.00,WUHU216WMR968SP,2013-09-28 16:37:00,
2013-09-28 12:42:00,62.2,28.5,30.18,ESE,108,4.9,6.3,28,0.00,,,0.00,WUHU216WMR968SP,2013-09-28 16:42:00,
2013-09-28 12:47:00,62.2,28.5,30.18,SE,125,4.9,6.3,28,0.00,,,0.00,WUHU216WMR968SP,2013-09-28 16:47:00,
2013-09-28 12:52:00,62.6,28.0,30.18,East,101,4.5,6.3,27,0.00,,,0.00,WUHU216WMR968SP,2013-09-28 16:52:00,
2013-09-28 12:57:00,63.0,28.3,30.15,ESE,112,4.0,5.8,27,0.00,,,0.00,WUHU216WMR968SP,2013-09-28 16:57:00,
2013-09-28 13:02:00,63.3,28.6,30.15,SSE,162,4.0,5.8,27,0.00,,,0.00,WUHU216WMR968SP,2013-09-28 17:02:00,
2013-09-28 13:07:00,63.1,28.4,30.15,East,87,3.6,5.8,27,0.00,,,0.00,WUHU216WMR968SP,2013-09-28 17:07:00,
2013-09-28 13:12:00,63.0,28.3,30.15,SSE,153,4.5,5.8,27,0.00,,,0.00,WUHU216WMR968SP,2013-09-28 17:12:00,
2013-09-28 13:17:00,63.1,28.4,30.15,SE,144,3.1,5.4,27,0.00,,,0.00,WUHU216WMR968SP,2013-09-28 17:17:00,
2013-09-28 13:22:00,63.3,28.6,30.15,SSE,157,3.6,5.4,27,0.00,,,0.00,WUHU216WMR968SP,2013-09-28 17:22:00,
2013-09-28 13:27:00,63.1,28.4,30.15,SE,142,2.7,4.9,27,0.00,,,0.00,WUHU216WMR968SP,2013-09-28 17:27:00,
2013-09-28 13:32:00,63.1,29.3,30.15,South,179,2.2,6.3,28,0.00,,,0.00,WUHU216WMR968SP,2013-09-28 17:32:00,
2013-09-28 13:37:00,63.5,28.7,30.15,South,176,3.6,6.3,27,0.00,,,0.00,WUHU216WMR968SP,2013-09-28 17:37:00,
2013-09-28 13:42:00,63.3,29.4,30.15,SSE,167,4.5,5.4,28,0.00,,,0.00,WUHU216WMR968SP,2013-09-28 17:42:00,
2013-09-28 13:47:00,63.3,28.6,30.15,SSE,160,3.1,5.4,27,0.00,,,0.00,WUHU216WMR968SP,2013-09-28 17:47:00,
2013-09-28 13:52:00,62.8,29.0,30.15,ESE,106,0.0,5.4,28,0.00,,,0.00,WUHU216WMR968SP,2013-09-28 17:52:00,
2013-09-28 13:57:00,62.2,29.3,30.15,SE,142,3.1,4.9,29,0.00,,,0.00,WUHU216WMR968SP,2013-09-28 17:57:00,
2013-09-28 14:02:00,62.4,29.5,30.15,ESE,117,2.2,4.9,29,0.00,,,0.00,WUHU216WMR968SP,2013-09-28 18:02:00,
2013-09-28 14:07:00,62.8,29.0,30.15,SE,142,2.2,4.9,28,0.00,,,0.00,WUHU216WMR968SP,2013-09-28 18:07:00,
2013-09-28 14:12:00,63.1,29.3,30.15,SSE,147,3.1,6.3,28,0.00,,,0.00,WUHU216WMR968SP,2013-09-28 18:12:00,
2013-09-28 14:17:00,63.0,30.0,30.15,SSW,192,4.5,6.3,29,0.00,,,0.00,WUHU216WMR968SP,2013-09-28 18:17:00,
2013-09-28 14:22:00,63.0,30.0,30.15,SE,130,3.1,6.3,29,0.00,,,0.00,WUHU216WMR968SP,2013-09-28 18:22:00,
2013-09-28 14:27:00,63.1,30.1,30.15,South,172,4.9,6.3,29,0.00,,,0.00,WUHU216WMR968SP,2013-09-28 18:27:00,
2013-09-28 14:32:00,63.5,29.6,30.15,SE,137,4.0,8.3,28,0.00,,,0.00,WUHU216WMR968SP,2013-09-28 18:32:00,
2013-09-28 14:37:00,63.3,30.3,30.15,South,185,4.0,8.3,29,0.00,,,0.00,WUHU216WMR968SP,2013-09-28 18:37:00,
2013-09-28 14:42:00,63.5,32.0,30.15,SSE,165,2.7,6.3,30,0.00,,,0.00,WUHU216WMR968SP,2013-09-28 18:42:00,
2013-09-28 14:47:00,63.5,32.0,30.15,SSE,150,4.5,6.3,29,0.00,,,0.00,WUHU216WMR968SP,2013-09-28 18:47:00,
2013-09-28 14:52:00,63.3,31.1,30.15,South,185,3.6,6.3,30,0.00,,,0.00,WUHU216WMR968SP,2013-09-28 18:52:00,
2013-09-28 14:57:00,63.3,31.1,30.15,SE,124,3.1,6.3,30,0.00,,,0.00,WUHU216WMR968SP,2013-09-28 18:57:00,
2013-09-28 15:02:00,63.1,31.0,30.15,SSE,157,2.7,5.8,30,0.00,,,0.00,WUHU216WMR968SP,2013-09-28 19:02:00,
2013-09-28 15:07:00,63.0,32.0,30.15,ESE,112,3.6,5.8,31,0.00,,,0.00,WUHU216WMR968SP,2013-09-28 19:07:00,
2013-09-28 15:12:00,63.0,32.0,30.15,SE,130,3.6,5.8,32,0.00,,,0.00,WUHU216WMR968SP,2013-09-28 19:12:00,
2013-09-28 15:17:00,63.0,33.8,30.15,ESE,117,4.9,8.1,33,0.00,,,0.00,WUHU216WMR968SP,2013-09-28 19:17:00,
2013-09-28 15:22:00,63.0,32.0,30.15,South,177,2.2,8.1,32,0.00,,,0.00,WUHU216WMR968SP,2013-09-28 19:22:00,
2013-09-28 15:27:00,63.1,33.8,30.15,SSE,148,3.6,5.4,33,0.00,,,0.00,WUHU216WMR968SP,2013-09-28 19:27:00,
2013-09-28 15:32:00,63.0,32.0,30.15,SE,132,3.1,5.8,32,0.00,,,0.00,WUHU216WMR968SP,2013-09-28 19:32:00,
2013-09-28 15:37:00,63.0,33.8,30.15,South,183,4.0,5.8,33,0.00,,,0.00,WUHU216WMR968SP,2013-09-28 19:37:00,
2013-09-28 15:42:00,62.8,33.8,30.18,South,170,2.7,5.8,33,0.00,,,0.00,WUHU216WMR968SP,2013-09-28 19:42:00,
2013-09-28 15:47:00,63.0,33.8,30.18,South,188,0.0,5.4,33,0.00,,,0.00,WUHU216WMR968SP,2013-09-28 19:47:00,
2013-09-28 15:52:00,63.1,33.8,30.18,SSE,156,5.4,6.3,33,0.00,,,0.00,WUHU216WMR968SP,2013-09-28 19:52:00,
2013-09-28 15:57:00,63.0,33.8,30.15,South,191,4.9,6.3,33,0.00,,,0.00,WUHU216WMR968SP,2013-09-28 19:57:00,
2013-09-28 16:02:00,63.0,33.8,30.15,South,182,3.1,6.3,33,0.00,,,0.00,WUHU216WMR968SP,2013-09-28 20:02:00,
2013-09-28 16:07:00,63.0,33.8,30.15,South,172,4.0,6.3,33,0.00,,,0.00,WUHU216WMR968SP,2013-09-28 20:07:00,
2013-09-28 16:12:00,62.8,33.8,30.15,SE,145,4.5,6.3,33,0.00,,,0.00,WUHU216WMR968SP,2013-09-28 20:12:00,
2013-09-28 16:17:00,62.6,33.8,30.15,South,186,4.5,6.3,34,0.00,,,0.00,WUHU216WMR968SP,2013-09-28 20:17:00,
2013-09-28 16:22:00,62.4,33.8,30.15,SSE,162,3.1,7.6,34,0.00,,,0.00,WUHU216WMR968SP,2013-09-28 20:22:00,
2013-09-28 16:27:00,62.4,33.8,30.15,SSW,196,4.0,7.6,34,0.00,,,0.00,WUHU216WMR968SP,2013-09-28 20:27:00,
2013-09-28 16:32:00,62.4,33.8,30.15,South,187,4.5,6.3,34,0.00,,,0.00,WUHU216WMR968SP,2013-09-28 20:32:00,
2013-09-28 16:37:00,62.6,33.8,30.15,South,187,3.1,5.8,34,0.00,,,0.00,WUHU216WMR968SP,2013-09-28 20:37:00,
2013-09-28 16:42:00,62.4,33.8,30.18,South,176,0.0,5.8,34,0.00,,,0.00,WUHU216WMR968SP,2013-09-28 20:42:00,
2013-09-28 16:47:00,62.6,33.8,30.18,South,170,4.0,5.8,34,0.00,,,0.00,WUHU216WMR968SP,2013-09-28 20:47:00,
2013-09-28 16:52:00,62.6,33.8,30.18,SSW,193,4.0,6.3,34,0.00,,,0.00,WUHU216WMR968SP,2013-09-28 20:52:00,
2013-09-28 16:57:00,62.2,33.8,30.18,South,183,2.7,6.3,34,0.00,,,0.00,WUHU216WMR968SP,2013-09-28 20:57:00,
2013-09-28 17:02:00,62.2,33.8,30.18,South,175,4.9,6.3,35,0.00,,,0.00,WUHU216WMR968SP,2013-09-28 21:02:00,
2013-09-28 17:07:00,62.1,33.8,30.18,South,182,4.0,6.3,35,0.00,,,0.00,WUHU216WMR968SP,2013-09-28 21:07:00,
2013-09-28 17:12:00,61.9,33.8,30.18,SSW,208,4.5,8.1,35,0.00,,,0.00,WUHU216WMR968SP,2013-09-28 21:12:00,
2013-09-28 17:17:00,61.9,33.8,30.18,South,183,4.5,8.1,35,0.00,,,0.00,WUHU216WMR968SP,2013-09-28 21:17:00,
2013-09-28 17:22:00,61.7,35.6,30.18,South,190,0.0,6.3,36,0.00,,,0.00,WUHU216WMR968SP,2013-09-28 21:22:00,
2013-09-28 17:27:00,61.7,35.6,30.18,South,172,3.1,6.3,36,0.00,,,0.00,WUHU216WMR968SP,2013-09-28 21:27:00,
2013-09-28 17:32:00,61.5,33.8,30.18,South,189,0.0,4.9,36,0.00,,,0.00,WUHU216WMR968SP,2013-09-28 21:32:00,
2013-09-28 17:37:00,61.3,33.8,30.18,SSE,156,0.0,4.0,36,0.00,,,0.00,WUHU216WMR968SP,2013-09-28 21:37:00,
2013-09-28 17:42:00,61.2,33.8,30.18,South,190,3.6,4.0,36,0.00,,,0.00,WUHU216WMR968SP,2013-09-28 21:42:00,
2013-09-28 17:47:00,61.0,33.8,30.18,South,181,0.0,4.0,36,0.00,,,0.00,WUHU216WMR968SP,2013-09-28 21:47:00,
2013-09-28 17:52:00,60.6,33.8,30.18,South,191,0.0,5.4,36,0.00,,,0.00,WUHU216WMR968SP,2013-09-28 21:52:00,
2013-09-28 17:57:00,59.9,33.8,30.18,South,184,2.7,5.4,37,0.00,,,0.00,WUHU216WMR968SP,2013-09-28 21:57:00,
2013-09-28 18:02:00,59.4,33.8,30.18,South,183,0.0,4.0,38,0.00,,,0.00,WUHU216WMR968SP,2013-09-28 22:02:00,
2013-09-28 18:07:00,59.0,33.8,30.18,South,181,2.2,4.0,39,0.00,,,0.00,WUHU216WMR968SP,2013-09-28 22:07:00,
2013-09-28 18:12:00,58.6,35.6,30.18,South,185,0.0,4.0,41,0.00,,,0.00,WUHU216WMR968SP,2013-09-28 22:12:00,
2013-09-28 18:17:00,58.3,35.6,30.18,South,171,0.0,4.0,42,0.00,,,0.00,WUHU216WMR968SP,2013-09-28 22:17:00,
2013-09-28 18:22:00,57.9,35.6,30.18,South,178,0.0,4.0,43,0.00,,,0.00,WUHU216WMR968SP,2013-09-28 22:22:00,
2013-09-28 18:27:00,57.7,35.6,30.15,South,182,0.0,3.6,44,0.00,,,0.00,WUHU216WMR968SP,2013-09-28 22:27:00,
2013-09-28 18:32:00,57.6,35.6,30.15,SSE,162,0.0,3.6,45,0.00,,,0.00,WUHU216WMR968SP,2013-09-28 22:32:00,
2013-09-28 18:37:00,57.4,37.4,30.15,South,189,0.0,3.6,46,0.00,,,0.00,WUHU216WMR968SP,2013-09-28 22:37:00,
2013-09-28 18:42:00,57.0,37.4,30.15,South,189,0.0,3.1,46,0.00,,,0.00,WUHU216WMR968SP,2013-09-28 22:42:00,
2013-09-28 18:47:00,56.7,37.4,30.15,South,189,0.0,0.0,46,0.00,,,0.00,WUHU216WMR968SP,2013-09-28 22:47:00,
2013-09-28 18:52:00,56.7,37.4,30.15,South,189,0.0,0.0,46,0.00,,,0.00,WUHU216WMR968SP,2013-09-28 22:52:00,
2013-09-28 18:57:00,56.7,37.4,30.15,South,182,0.0,3.1,47,0.00,,,0.00,WUHU216WMR968SP,2013-09-28 22:57:00,
2013-09-28 19:02:00,56.5,37.4,30.15,South,182,0.0,3.1,47,0.00,,,0.00,WUHU216WMR968SP,2013-09-28 23:02:00,
2013-09-28 19:07:00,56.8,37.4,30.15,South,180,2.2,3.6,48,0.00,,,0.00,WUHU216WMR968SP,2013-09-28 23:07:00,
2013-09-28 19:12:00,57.0,37.4,30.15,South,179,2.2,4.0,49,0.00,,,0.00,WUHU216WMR968SP,2013-09-28 23:12:00,
2013-09-28 19:17:00,57.2,39.2,30.15,South,173,2.2,5.4,50,0.00,,,0.00,WUHU216WMR968SP,2013-09-28 23:17:00,
2013-09-28 19:22:00,57.2,39.2,30.15,South,181,3.6,5.8,50,0.00,,,0.00,WUHU216WMR968SP,2013-09-28 23:22:00,
2013-09-28 19:27:00,57.0,39.2,30.15,SSW,193,0.0,5.8,51,0.00,,,0.00,WUHU216WMR968SP,2013-09-28 23:27:00,
2013-09-28 19:32:00,56.7,39.2,30.15,SE,146,0.0,4.0,51,0.00,,,0.00,WUHU216WMR968SP,2013-09-28 23:32:00,
2013-09-28 19:37:00,56.7,39.2,30.15,South,179,2.2,4.0,51,0.00,,,0.00,WUHU216WMR968SP,2013-09-28 23:37:00,
2013-09-28 19:42:00,56.7,39.2,30.15,South,189,0.0,4.0,52,0.00,,,0.00,WUHU216WMR968SP,2013-09-28 23:42:00,
2013-09-28 19:47:00,56.7,39.2,30.15,South,184,0.0,4.9,52,0.00,,,0.00,WUHU216WMR968SP,2013-09-28 23:47:00,
2013-09-28 19:52:00,56.5,39.2,30.15,South,184,0.0,4.9,52,0.00,,,0.00,WUHU216WMR968SP,2013-09-28 23:52:00,
2013-09-28 19:57:00,56.3,39.2,30.15,South,184,0.0,3.6,51,0.00,,,0.00,WUHU216WMR968SP,2013-09-28 23:57:00,
2013-09-28 20:02:00,56.1,37.4,30.15,South,184,0.0,2.2,51,0.00,,,0.00,WUHU216WMR968SP,2013-09-29 00:02:00,
2013-09-28 20:07:00,56.1,37.4,30.15,South,184,0.0,2.2,52,0.00,,,0.00,WUHU216WMR968SP,2013-09-29 00:07:00,
2013-09-28 20:12:00,55.9,37.4,30.15,South,184,0.0,0.0,52,0.00,,,0.00,WUHU216WMR968SP,2013-09-29 00:12:00,
2013-09-28 20:17:00,55.8,37.4,30.15,South,184,0.0,0.0,52,0.00,,,0.00,WUHU216WMR968SP,2013-09-29 00:17:00,
2013-09-28 20:22:00,55.8,37.4,30.15,South,184,0.0,0.0,52,0.00,,,0.00,WUHU216WMR968SP,2013-09-29 00:22:00,
2013-09-28 20:27:00,55.6,37.4,30.12,South,184,0.0,0.0,52,0.00,,,0.00,WUHU216WMR968SP,2013-09-29 00:27:00,
2013-09-28 20:32:00,55.6,37.4,30.12,South,184,0.0,0.0,52,0.00,,,0.00,WUHU216WMR968SP,2013-09-29 00:32:00,
2013-09-28 20:37:00,55.2,37.4,30.12,South,184,0.0,0.0,52,0.00,,,0.00,WUHU216WMR968SP,2013-09-29 00:37:00,
2013-09-28 20:42:00,54.9,37.4,30.15,South,184,0.0,0.0,52,0.00,,,0.00,WUHU216WMR968SP,2013-09-29 00:42:00,
2013-09-28 20:47:00,55.0,37.4,30.15,South,184,0.0,0.0,52,0.00,,,0.00,WUHU216WMR968SP,2013-09-29 00:47:00,
2013-09-28 20:52:00,54.7,37.4,30.15,South,184,0.0,0.0,52,0.00,,,0.00,WUHU216WMR968SP,2013-09-29 00:52:00,
2013-09-28 20:57:00,54.5,37.4,30.15,South,184,0.0,0.0,52,0.00,,,0.00,WUHU216WMR968SP,2013-09-29 00:57:00,
2013-09-28 21:02:00,54.7,39.2,30.15,South,184,0.0,0.0,53,0.00,,,0.00,WUHU216WMR968SP,2013-09-29 01:02:00,
2013-09-28 21:07:00,54.9,39.2,30.15,South,184,0.0,0.0,53,0.00,,,0.00,WUHU216WMR968SP,2013-09-29 01:07:00,
2013-09-28 21:12:00,54.9,39.2,30.15,South,184,0.0,0.0,53,0.00,,,0.00,WUHU216WMR968SP,2013-09-29 01:12:00,
2013-09-28 21:17:00,54.7,39.2,30.15,South,184,0.0,0.0,53,0.00,,,0.00,WUHU216WMR968SP,2013-09-29 01:17:00,
2013-09-28 21:22:00,54.5,37.4,30.15,South,184,0.0,0.0,52,0.00,,,0.00,WUHU216WMR968SP,2013-09-29 01:22:00,
2013-09-28 21:27:00,54.5,39.2,30.15,South,184,0.0,0.0,53,0.00,,,0.00,WUHU216WMR968SP,2013-09-29 01:27:00,
2013-09-28 21:32:00,54.5,39.2,30.15,South,184,0.0,0.0,54,0.00,,,0.00,WUHU216WMR968SP,2013-09-29 01:32:00,
2013-09-28 21:37:00,54.7,39.2,30.15,South,184,0.0,0.0,55,0.00,,,0.00,WUHU216WMR968SP,2013-09-29 01:37:00,
2013-09-28 21:42:00,54.7,39.2,30.15,South,184,0.0,0.0,54,0.00,,,0.00,WUHU216WMR968SP,2013-09-29 01:42:00,
2013-09-28 21:47:00,54.9,39.2,30.15,South,184,0.0,0.0,55,0.00,,,0.00,WUHU216WMR968SP,2013-09-29 01:47:00,
2013-09-28 21:52:00,55.0,39.2,30.15,South,184,0.0,0.0,55,0.00,,,0.00,WUHU216WMR968SP,2013-09-29 01:52:00,
2013-09-28 21:57:00,55.4,39.2,30.15,South,184,0.0,0.0,56,0.00,,,0.00,WUHU216WMR968SP,2013-09-29 01:57:00,
2013-09-28 22:02:00,55.4,41.0,30.15,South,184,0.0,0.0,57,0.00,,,0.00,WUHU216WMR968SP,2013-09-29 02:02:00,
2013-09-28 22:07:00,55.6,41.0,30.15,South,184,0.0,0.0,57,0.00,,,0.00,WUHU216WMR968SP,2013-09-29 02:07:00,
2013-09-28 22:12:00,55.2,41.0,30.15,South,184,0.0,0.0,60,0.00,,,0.00,WUHU216WMR968SP,2013-09-29 02:12:00,
2013-09-28 22:17:00,54.7,41.0,30.15,South,184,0.0,0.0,57,0.00,,,0.00,WUHU216WMR968SP,2013-09-29 02:17:00,
2013-09-28 22:22:00,54.5,41.0,30.15,South,184,0.0,0.0,58,0.00,,,0.00,WUHU216WMR968SP,2013-09-29 02:22:00,
2013-09-28 22:27:00,54.5,41.0,30.12,South,184,0.0,0.0,58,0.00,,,0.00,WUHU216WMR968SP,2013-09-29 02:27:00,
2013-09-28 22:32:00,54.3,39.2,30.12,South,184,0.0,0.0,59,0.00,,,0.00,WUHU216WMR968SP,2013-09-29 02:32:00,
2013-09-28 22:37:00,54.0,39.2,30.12,South,184,0.0,0.0,58,0.00,,,0.00,WUHU216WMR968SP,2013-09-29 02:37:00,
2013-09-28 22:42:00,54.0,39.2,30.12,South,184,0.0,0.0,58,0.00,,,0.00,WUHU216WMR968SP,2013-09-29 02:42:00,
2013-09-28 22:47:00,53.8,39.2,30.12,South,184,0.0,0.0,57,0.00,,,0.00,WUHU216WMR968SP,2013-09-29 02:47:00,
2013-09-28 22:52:00,53.2,39.2,30.12,South,184,0.0,0.0,56,0.00,,,0.00,WUHU216WMR968SP,2013-09-29 02:52:00,
2013-09-28 22:57:00,53.6,39.2,30.12,South,184,0.0,0.0,60,0.00,,,0.00,WUHU216WMR968SP,2013-09-29 02:57:00,
2013-09-28 23:02:00,54.0,41.0,30.12,South,184,0.0,0.0,63,0.00,,,0.00,WUHU216WMR968SP,2013-09-29 03:02:00,
2013-09-28 23:07:00,54.3,41.0,30.12,South,184,0.0,0.0,63,0.00,,,0.00,WUHU216WMR968SP,2013-09-29 03:07:00,
2013-09-28 23:12:00,54.3,41.0,30.12,South,184,0.0,0.0,64,0.00,,,0.00,WUHU216WMR968SP,2013-09-29 03:12:00,
2013-09-28 23:17:00,54.0,39.2,30.12,South,184,0.0,0.0,60,0.00,,,0.00,WUHU216WMR968SP,2013-09-29 03:17:00,
2013-09-28 23:22:00,53.6,39.2,30.12,South,184,0.0,0.0,59,0.00,,,0.00,WUHU216WMR968SP,2013-09-29 03:22:00,
2013-09-28 23:27:00,53.4,39.2,30.12,South,184,0.0,0.0,59,0.00,,,0.00,WUHU216WMR968SP,2013-09-29 03:27:00,
2013-09-28 23:32:00,53.1,39.2,30.12,South,184,0.0,0.0,58,0.00,,,0.00,WUHU216WMR968SP,2013-09-29 03:32:00,
2013-09-28 23:37:00,53.1,39.2,30.12,South,184,0.0,0.0,60,0.00,,,0.00,WUHU216WMR968SP,2013-09-29 03:37:00,
2013-09-28 23:42:00,53.8,42.8,30.12,South,184,0.0,0.0,67,0.00,,,0.00,WUHU216WMR968SP,2013-09-29 03:42:00,
2013-09-28 23:47:00,54.3,44.6,30.12,North,357,0.0,3.1,71,0.00,,,0.00,WUHU216WMR968SP,2013-09-29 03:47:00,
2013-09-28 23:52:00,53.8,44.6,30.12,North,353,0.0,3.6,71,0.00,,,0.00,WUHU216WMR968SP,2013-09-29 03:52:00,
2013-09-28 23:57:00,53.1,42.8,30.12,North,353,0.0,3.6,68,0.00,,,0.00,WUHU216WMR968SP,2013-09-29 03:57:00,